RPi & Temperatures at JO21ut

Last graph updates: Wednesday 18 July 2018 04:02 CEST

Sunrise: 05:38 & Sunset: 21:48 The Sun is currently not visible. [-8.62 degrees] and 152034877 Km from the Earth
Moonrise: 12:27 & Moonset: 24:46 Quarter Moon The Moon is 374778 Km from the Earth
Find here more details on MARS.

04:29:26 up 6:30, 0 users, load average: 0.51, 0.50, 0.47
Current CPU frequency is: 1000 Mhz
Current GPU temperature: 32.014°C
Current inside temperature is 22.1°C with a humidity of 58.1%
Second inside temperature is 22°C with a pressure of 1014.51 Hpa (29.73 inHg) and an uncorrected altitude of -10.57 m
ds18b20 now showing 21.1°C

All the sensors I use, DHT22 | BMP085 | MPU6050 | BH1750FVI | MMA7455 | HMC5883L | MPL3115A2 | DS1307 | HTU21 | AM2321 | DS3231 | INA219 | LM75A , and it's current readout can be viewed here please be patient as it needs to read all sensors data. The page loads after about 10 seconds. In our forum more details can be found such as the used software/sources. Feel free to add yours also..


Pressure BMP085
Pressure BMP085
Pressure BMP085
Pressure BMP085
PI CPU Temp
Inet Volkel temp
Inside temp BMP085
Humidity BMP085
PI CPU Temp
Inet Volkel temp
Inside temp BMP085
Humidity BMP085
PI CPU Temp
Inet Volkel temp
Inside temp BMP085
Humidity BMP085
PI CPU Temp
Inet Volkel temp
Inside temp BMP085
Humidity BMP085
PI CPU Temp
Inet Volkel temp
Inside temp BMP085
Humidity BMP085
Inside light BH1750FV
Inside light BH1750FV
Inside light BH1750FV
Inside light BH1750FV
Inside light BH1750FV
Inside light BH1750FV
Sunlight hours
 

Sun & Moon height


Wijchen weather

Weer Widget
ScreenSaver yr.no

Sun Moon Earth


EHEH 180225Z AUTO 22001KT 9999 NCD 11/10 Q1018 BLU EHEH 180225Z AUTO 22001KT 9999 NCD 11/10 Q1018 BLU EHEH 180225Z AUTO 22001KT 9999 NCD 11/10 Q1018 BLU

Weather data from Volkel [NL] EHVK


4 minutes ago, at 02:25 UTC, the wind was blowing at a speed of 0.5 meters per second (1.2 miles per hour/1 knots) from Southwest (220) in Volkel [EHVK], Netherlands. The temperature was 11 °C (52 °F) with a dewpoint of 10 °C (50 °F), and the pressure was 1,018 hPa (30.06 inHg). The relative humidity was 93.5%. . The visibility was >10 kilometers (>6.2 miles).




View code:

Contact me  |  My Raspberry PI forum